Time;durP1;ratioP1;P1;durP2;ratioP2;P2;SDS_P1;SDS_P2;PMS_P1;PMS_P2;Temp;Humidity;BMP_temperature;BMP_pressure;BME280_temperature;BME280_humidity;BME280_pressure;Samples;Min_cycle;Max_cycle;Signal;HPM_P1;HPM_P2
2022/01/11 00:00:20;;;;;;;14.80;9.45;;;;;;;;;;5021809;28;20727;-79
2022/01/11 00:02:46;;;;;;;14.70;8.80;;;;;;;;;;5021132;28;20193;-79
2022/01/11 00:05:20;;;;;;;15.60;9.32;;;;;;;;;;5021712;28;20329;-79
2022/01/11 00:07:46;;;;;;;17.30;9.93;;;;;;;;;;5020283;28;20255;-78
2022/01/11 00:10:21;;;;;;;12.50;10.15;;;;;;;;;;5022190;28;20182;-78
2022/01/11 00:12:47;;;;;;;14.35;9.50;;;;;;;;;;5022050;28;20188;-78
2022/01/11 00:15:13;;;;;;;16.65;10.13;;;;;;;;;;5021718;28;20186;-79
2022/01/11 00:17:38;;;;;;;17.02;9.85;;;;;;;;;;5020520;28;20241;-79
2022/01/11 00:20:06;;;;;;;15.80;11.30;;;;;;;;;;5019247;28;20203;-79
2022/01/11 00:22:37;;;;;;;12.43;9.30;;;;;;;;;;5021234;28;20440;-79
2022/01/11 00:25:04;;;;;;;14.43;10.57;;;;;;;;;;5021473;28;20182;-79
2022/01/11 00:27:30;;;;;;;18.17;10.73;;;;;;;;;;5020608;28;20182;-78
2022/01/11 00:30:01;;;;;;;12.88;9.15;;;;;;;;;;5019996;28;20205;-80
2022/01/11 00:32:38;;;;;;;13.57;10.48;;;;;;;;;;5021201;28;20576;-78
2022/01/11 00:35:06;;;;;;;12.18;10.43;;;;;;;;;;5021390;28;20182;-79
2022/01/11 00:37:32;;;;;;;16.38;11.35;;;;;;;;;;5021306;28;20209;-80
2022/01/11 00:40:00;;;;;;;15.80;10.77;;;;;;;;;;5021993;28;20229;-78
2022/01/11 00:42:26;;;;;;;17.13;10.23;;;;;;;;;;5021533;28;20198;-78
2022/01/11 00:44:52;;;;;;;17.90;11.98;;;;;;;;;;5020818;28;20178;-79
2022/01/11 00:47:19;;;;;;;16.83;10.52;;;;;;;;;;5018621;28;20201;-78
2022/01/11 00:49:45;;;;;;;17.20;10.95;;;;;;;;;;5021611;28;20193;-79
2022/01/11 00:52:11;;;;;;;13.93;10.52;;;;;;;;;;5022990;28;20261;-78
2022/01/11 00:54:37;;;;;;;14.60;10.85;;;;;;;;;;5016942;28;20217;-79
2022/01/11 00:57:04;;;;;;;17.63;11.68;;;;;;;;;;5019854;28;20190;-78
2022/01/11 00:59:30;;;;;;;18.23;11.38;;;;;;;;;;5019616;28;20308;-78
2022/01/11 01:01:56;;;;;;;19.27;11.45;;;;;;;;;;5019148;28;20676;-78
2022/01/11 01:04:22;;;;;;;19.63;12.68;;;;;;;;;;5022741;28;20174;-78
2022/01/11 01:06:48;;;;;;;18.63;13.02;;;;;;;;;;5019720;28;20182;-78
2022/01/11 01:09:14;;;;;;;16.85;12.43;;;;;;;;;;5020626;28;20183;-78
2022/01/11 01:11:43;;;;;;;18.65;11.93;;;;;;;;;;5021450;28;20198;-78
2022/01/11 01:14:09;;;;;;;14.60;12.30;;;;;;;;;;5023903;28;20175;-78
2022/01/11 01:16:35;;;;;;;17.20;11.50;;;;;;;;;;5023872;28;20166;-78
2022/01/11 01:19:01;;;;;;;16.55;11.32;;;;;;;;;;5025988;28;20234;-78
2022/01/11 01:21:27;;;;;;;21.50;11.80;;;;;;;;;;5023521;28;20292;-78
2022/01/11 01:23:53;;;;;;;15.50;10.25;;;;;;;;;;5023283;28;20229;-78
2022/01/11 01:26:19;;;;;;;16.40;11.27;;;;;;;;;;5012799;28;20251;-78
2022/01/11 01:28:47;;;;;;;15.63;11.68;;;;;;;;;;5008665;28;20190;-78
2022/01/11 01:31:13;;;;;;;20.30;12.25;;;;;;;;;;5024459;28;20179;-77
2022/01/11 01:33:39;;;;;;;13.63;9.55;;;;;;;;;;5025031;28;20197;-77
2022/01/11 01:36:11;;;;;;;17.98;11.20;;;;;;;;;;5024204;28;20214;-78
2022/01/11 01:38:37;;;;;;;18.85;10.73;;;;;;;;;;5022885;28;20628;-78
2022/01/11 01:41:13;;;;;;;16.45;11.25;;;;;;;;;;4989156;28;20572;-78
2022/01/11 01:43:39;;;;;;;19.05;10.98;;;;;;;;;;4989187;28;20174;-78
2022/01/11 01:46:05;;;;;;;16.55;10.13;;;;;;;;;;4991526;28;20191;-78
2022/01/11 01:48:31;;;;;;;19.33;11.27;;;;;;;;;;4991163;28;20180;-78
2022/01/11 01:50:58;;;;;;;16.90;10.75;;;;;;;;;;5006690;28;20218;-78
2022/01/11 01:53:24;;;;;;;21.20;9.73;;;;;;;;;;4992273;28;20201;-78
2022/01/11 01:55:50;;;;;;;11.52;8.85;;;;;;;;;;5004367;28;20188;-78
2022/01/11 01:58:16;;;;;;;15.13;10.50;;;;;;;;;;4993468;28;20719;-78
2022/01/11 02:00:50;;;;;;;14.38;9.40;;;;;;;;;;5008310;28;20207;-77
2022/01/11 02:03:17;;;;;;;17.38;9.80;;;;;;;;;;4992722;28;20199;-78
2022/01/11 02:05:44;;;;;;;16.25;8.65;;;;;;;;;;4992555;28;20187;-78
2022/01/11 02:08:11;;;;;;;14.07;9.60;;;;;;;;;;4990936;28;20190;-78
2022/01/11 02:10:37;;;;;;;17.42;10.57;;;;;;;;;;4989047;28;20183;-78
2022/01/11 02:13:04;;;;;;;12.57;9.40;;;;;;;;;;4990656;28;20171;-77
2022/01/11 02:15:30;;;;;;;11.60;9.30;;;;;;;;;;4991579;28;20275;-78
2022/01/11 02:18:06;;;;;;;12.73;8.88;;;;;;;;;;5007443;28;20187;-78
2022/01/11 02:20:32;;;;;;;13.68;8.80;;;;;;;;;;5006616;28;20244;-78
2022/01/11 02:22:58;;;;;;;16.17;9.60;;;;;;;;;;5004392;28;20191;-78
2022/01/11 02:25:24;;;;;;;13.75;9.45;;;;;;;;;;4991721;28;20187;-78
2022/01/11 02:27:50;;;;;;;13.95;10.32;;;;;;;;;;5007489;28;20185;-78
2022/01/11 02:30:16;;;;;;;12.50;8.60;;;;;;;;;;4991804;28;20187;-78
2022/01/11 02:32:52;;;;;;;12.32;8.95;;;;;;;;;;4991866;28;20218;-78
2022/01/11 02:35:18;;;;;;;15.05;8.70;;;;;;;;;;5003539;28;20197;-78
2022/01/11 02:37:45;;;;;;;11.32;8.05;;;;;;;;;;5002350;28;21316;-78
2022/01/11 02:40:13;;;;;;;13.88;8.93;;;;;;;;;;5018414;28;20249;-78
2022/01/11 02:42:39;;;;;;;13.90;8.82;;;;;;;;;;5022759;28;20662;-78
2022/01/11 02:45:11;;;;;;;14.10;8.55;;;;;;;;;;5023327;28;20183;-78
2022/01/11 02:47:37;;;;;;;14.77;9.90;;;;;;;;;;5021107;28;20190;-78
2022/01/11 02:50:03;;;;;;;16.87;8.97;;;;;;;;;;5020872;28;20191;-78
2022/01/11 02:52:29;;;;;;;12.07;8.73;;;;;;;;;;5023425;28;20426;-78
2022/01/11 02:54:55;;;;;;;14.80;9.25;;;;;;;;;;5022500;28;20189;-79
2022/01/11 02:57:21;;;;;;;14.38;8.57;;;;;;;;;;5023575;28;20186;-78
2022/01/11 02:59:48;;;;;;;12.32;7.80;;;;;;;;;;5021403;28;20210;-79
2022/01/11 03:02:14;;;;;;;14.55;9.10;;;;;;;;;;5021697;28;20195;-78
2022/01/11 03:04:40;;;;;;;12.80;7.93;;;;;;;;;;5023656;28;20178;-78
2022/01/11 03:07:06;;;;;;;13.73;7.97;;;;;;;;;;5023562;28;20169;-77
2022/01/11 03:09:44;;;;;;;13.07;8.40;;;;;;;;;;5022275;28;20217;-78
2022/01/11 03:12:11;;;;;;;12.65;8.68;;;;;;;;;;5018576;28;20194;-78
2022/01/11 03:14:37;;;;;;;10.57;7.78;;;;;;;;;;5015914;28;20194;-78
2022/01/11 03:17:05;;;;;;;11.15;8.02;;;;;;;;;;5022193;28;20194;-78
2022/01/11 03:19:31;;;;;;;14.82;8.60;;;;;;;;;;5023432;28;20217;-78
2022/01/11 03:21:56;;;;;;;12.88;9.18;;;;;;;;;;5023424;28;20178;-78
2022/01/11 03:24:22;;;;;;;10.23;8.30;;;;;;;;;;5022047;28;20182;-78
2022/01/11 03:26:48;;;;;;;14.02;8.75;;;;;;;;;;5020543;28;20190;-78
2022/01/11 03:29:14;;;;;;;14.57;9.67;;;;;;;;;;5022586;28;20186;-78
2022/01/11 03:31:40;;;;;;;13.48;9.35;;;;;;;;;;5021135;28;20972;-78
2022/01/11 03:34:06;;;;;;;15.85;9.32;;;;;;;;;;5023710;28;20421;-79
2022/01/11 03:36:32;;;;;;;17.88;9.85;;;;;;;;;;5021642;28;20182;-78
2022/01/11 03:38:58;;;;;;;16.65;9.05;;;;;;;;;;5022236;28;20214;-77
2022/01/11 03:41:24;;;;;;;14.07;7.72;;;;;;;;;;5021542;28;20218;-77
2022/01/11 03:43:50;;;;;;;15.05;9.32;;;;;;;;;;5020342;28;20186;-80
2022/01/11 03:46:17;;;;;;;14.60;8.77;;;;;;;;;;5022784;28;20218;-79
2022/01/11 03:48:43;;;;;;;17.90;9.13;;;;;;;;;;5022531;28;20186;-78
2022/01/11 03:51:09;;;;;;;12.45;9.30;;;;;;;;;;5021533;28;20190;-77
2022/01/11 03:53:49;;;;;;;15.27;8.70;;;;;;;;;;5021948;28;20216;-78
2022/01/11 03:56:21;;;;;;;12.63;8.60;;;;;;;;;;5021945;28;20193;-78
2022/01/11 03:58:47;;;;;;;13.18;9.35;;;;;;;;;;5020979;28;20189;-78
2022/01/11 04:01:13;;;;;;;11.40;8.35;;;;;;;;;;5022487;28;20202;-77
2022/01/11 04:03:39;;;;;;;19.20;10.68;;;;;;;;;;5019787;28;20640;-80
2022/01/11 04:06:05;;;;;;;14.68;10.20;;;;;;;;;;5020142;28;20197;-78
2022/01/11 04:08:31;;;;;;;11.10;9.00;;;;;;;;;;5021546;28;20209;-79
2022/01/11 04:10:57;;;;;;;14.45;9.55;;;;;;;;;;5020855;28;20191;-78
2022/01/11 04:13:23;;;;;;;18.80;10.77;;;;;;;;;;5023078;28;20321;-78
2022/01/11 04:15:49;;;;;;;16.52;10.77;;;;;;;;;;5021139;28;20340;-78
2022/01/11 04:18:15;;;;;;;16.50;9.77;;;;;;;;;;5021789;28;20189;-78
2022/01/11 04:20:41;;;;;;;17.55;10.82;;;;;;;;;;5021316;28;20216;-78
2022/01/11 04:23:11;;;;;;;15.57;10.25;;;;;;;;;;5021436;28;20214;-78
2022/01/11 04:25:37;;;;;;;15.05;11.27;;;;;;;;;;5020997;28;20190;-78
2022/01/11 04:28:03;;;;;;;18.52;12.25;;;;;;;;;;5023184;28;20539;-78
2022/01/11 04:30:29;;;;;;;14.60;10.50;;;;;;;;;;5019355;28;20184;-78
2022/01/11 04:32:55;;;;;;;17.33;11.55;;;;;;;;;;5021510;28;20279;-78
2022/01/11 04:35:21;;;;;;;16.20;10.48;;;;;;;;;;5021234;28;20221;-78
2022/01/11 04:37:48;;;;;;;17.92;11.20;;;;;;;;;;5019814;28;20205;-78
2022/01/11 04:40:15;;;;;;;22.27;11.02;;;;;;;;;;5022229;28;20285;-78
2022/01/11 04:42:41;;;;;;;21.23;12.98;;;;;;;;;;5021445;28;20189;-78
2022/01/11 04:45:10;;;;;;;20.63;11.68;;;;;;;;;;5020933;28;20197;-78
2022/01/11 04:47:36;;;;;;;17.10;11.18;;;;;;;;;;5021431;28;20186;-79
2022/01/11 04:50:03;;;;;;;14.88;9.82;;;;;;;;;;5025837;28;20320;-77
2022/01/11 04:52:29;;;;;;;18.73;10.95;;;;;;;;;;5024843;28;20170;-78
2022/01/11 04:54:55;;;;;;;19.10;11.95;;;;;;;;;;5012954;28;20187;-79
2022/01/11 04:57:21;;;;;;;17.25;11.07;;;;;;;;;;5032244;28;20217;-77
2022/01/11 04:59:47;;;;;;;21.60;12.02;;;;;;;;;;5024137;28;20221;-78
2022/01/11 05:02:13;;;;;;;19.55;10.50;;;;;;;;;;5025286;28;20202;-79
2022/01/11 05:04:39;;;;;;;15.43;9.00;;;;;;;;;;5024567;28;20229;-80
2022/01/11 05:07:05;;;;;;;14.85;8.60;;;;;;;;;;5025979;28;20170;-78
2022/01/11 05:09:31;;;;;;;18.83;10.05;;;;;;;;;;5025323;28;20187;-80
2022/01/11 05:11:57;;;;;;;14.50;9.75;;;;;;;;;;5024716;28;20217;-77
2022/01/11 05:14:23;;;;;;;14.57;9.48;;;;;;;;;;5025082;28;20786;-78
2022/01/11 05:16:49;;;;;;;12.98;9.63;;;;;;;;;;5024359;28;20183;-79
2022/01/11 05:19:15;;;;;;;14.63;9.85;;;;;;;;;;5025939;28;20185;-78
2022/01/11 05:21:41;;;;;;;16.25;10.43;;;;;;;;;;5024290;28;20182;-78
2022/01/11 05:24:08;;;;;;;16.65;9.52;;;;;;;;;;5023530;28;20182;-78
2022/01/11 05:26:34;;;;;;;16.33;11.00;;;;;;;;;;5024823;28;20266;-77
2022/01/11 05:29:00;;;;;;;13.02;8.48;;;;;;;;;;5024376;28;20439;-78
2022/01/11 05:31:26;;;;;;;13.52;8.80;;;;;;;;;;5025056;28;20183;-78
2022/01/11 05:33:52;;;;;;;19.65;9.30;;;;;;;;;;5020148;28;20183;-78
2022/01/11 05:36:18;;;;;;;16.65;10.32;;;;;;;;;;5020275;28;20213;-78
2022/01/11 05:38:44;;;;;;;18.27;9.98;;;;;;;;;;5024333;28;20222;-78
2022/01/11 05:41:11;;;;;;;15.57;9.60;;;;;;;;;;5023014;28;20203;-78
2022/01/11 05:43:37;;;;;;;14.68;9.70;;;;;;;;;;5025700;28;20520;-78
2022/01/11 05:46:04;;;;;;;14.40;8.98;;;;;;;;;;5024866;28;20178;-78
2022/01/11 05:48:32;;;;;;;13.45;9.90;;;;;;;;;;5022983;28;20171;-77
2022/01/11 05:50:58;;;;;;;18.02;9.27;;;;;;;;;;5023650;28;20194;-77
2022/01/11 05:53:24;;;;;;;18.45;10.10;;;;;;;;;;5024275;28;20254;-77
2022/01/11 05:55:50;;;;;;;21.92;10.48;;;;;;;;;;5023621;28;20191;-77
2022/01/11 05:58:16;;;;;;;13.65;8.65;;;;;;;;;;5025280;28;20175;-77
2022/01/11 06:00:42;;;;;;;13.43;8.85;;;;;;;;;;5022799;28;20209;-77
2022/01/11 06:03:08;;;;;;;15.35;9.55;;;;;;;;;;5024339;28;20225;-77
2022/01/11 06:05:38;;;;;;;13.82;8.73;;;;;;;;;;5023055;28;20183;-77
2022/01/11 06:08:05;;;;;;;18.02;10.57;;;;;;;;;;5022160;28;20186;-78
2022/01/11 06:10:31;;;;;;;17.27;9.73;;;;;;;;;;5025261;28;20182;-78
2022/01/11 06:12:57;;;;;;;15.55;10.15;;;;;;;;;;5024425;28;20178;-77
2022/01/11 06:15:23;;;;;;;14.85;8.82;;;;;;;;;;5022207;28;20229;-77
2022/01/11 06:17:50;;;;;;;17.55;9.93;;;;;;;;;;5022490;28;20197;-77
2022/01/11 06:20:16;;;;;;;11.90;9.57;;;;;;;;;;5022335;28;20210;-77
2022/01/11 06:22:42;;;;;;;15.38;9.90;;;;;;;;;;5022315;28;20174;-77
2022/01/11 06:25:09;;;;;;;17.08;8.80;;;;;;;;;;5024465;28;20169;-77
2022/01/11 06:27:40;;;;;;;16.15;9.48;;;;;;;;;;5022058;28;20182;-77
2022/01/11 06:30:07;;;;;;;15.13;10.63;;;;;;;;;;5023738;28;20187;-77
2022/01/11 06:32:33;;;;;;;13.52;9.05;;;;;;;;;;5022314;28;20182;-77
2022/01/11 06:34:59;;;;;;;15.85;10.18;;;;;;;;;;5011712;28;20178;-77
2022/01/11 06:37:25;;;;;;;17.67;10.85;;;;;;;;;;5024637;28;20269;-77
2022/01/11 06:39:51;;;;;;;18.33;10.75;;;;;;;;;;5012340;28;20226;-77
2022/01/11 06:42:17;;;;;;;14.60;9.70;;;;;;;;;;4992404;28;20214;-77
2022/01/11 06:44:43;;;;;;;15.43;9.38;;;;;;;;;;4991884;28;20191;-77
2022/01/11 06:47:10;;;;;;;15.25;10.88;;;;;;;;;;4986846;28;20186;-76
2022/01/11 06:49:36;;;;;;;15.50;10.77;;;;;;;;;;5019869;28;20182;-77
2022/01/11 06:52:02;;;;;;;14.55;9.27;;;;;;;;;;4992040;28;20187;-77
2022/01/11 06:54:28;;;;;;;14.63;10.07;;;;;;;;;;5007488;28;20665;-76
2022/01/11 06:56:55;;;;;;;16.08;8.40;;;;;;;;;;4991928;28;20194;-76
2022/01/11 06:59:22;;;;;;;19.60;10.68;;;;;;;;;;4987231;28;20183;-77
2022/01/11 07:01:48;;;;;;;24.02;11.38;;;;;;;;;;5001008;28;20195;-77
2022/01/11 07:04:14;;;;;;;16.40;10.95;;;;;;;;;;5006923;28;20179;-77
2022/01/11 07:06:40;;;;;;;15.40;9.95;;;;;;;;;;5006174;28;20191;-77
2022/01/11 07:09:06;;;;;;;16.80;9.47;;;;;;;;;;5006643;28;20179;-77
2022/01/11 07:11:32;;;;;;;16.10;9.77;;;;;;;;;;4990469;28;20947;-76
2022/01/11 07:14:01;;;;;;;17.30;10.13;;;;;;;;;;5001593;28;20190;-77
2022/01/11 07:16:27;;;;;;;15.52;10.77;;;;;;;;;;5007597;28;20179;-77
2022/01/11 07:18:53;;;;;;;19.30;10.75;;;;;;;;;;4991402;28;20187;-77
2022/01/11 07:21:19;;;;;;;18.63;11.57;;;;;;;;;;4990839;28;20195;-76
2022/01/11 07:23:45;;;;;;;14.48;10.13;;;;;;;;;;4990208;28;20325;-76
2022/01/11 07:26:11;;;;;;;19.80;11.52;;;;;;;;;;4988414;28;20542;-77
2022/01/11 07:28:37;;;;;;;16.90;11.00;;;;;;;;;;5006672;28;20175;-77
2022/01/11 07:31:03;;;;;;;19.92;10.88;;;;;;;;;;5006060;28;20183;-77
2022/01/11 07:33:29;;;;;;;16.33;11.00;;;;;;;;;;4997563;28;20220;-77
2022/01/11 07:35:56;;;;;;;17.23;8.90;;;;;;;;;;5013071;28;20222;-76
2022/01/11 07:38:22;;;;;;;12.48;8.63;;;;;;;;;;4989841;28;20460;-76
2022/01/11 07:40:48;;;;;;;17.13;10.75;;;;;;;;;;5003366;28;20474;-77
2022/01/11 07:43:14;;;;;;;14.90;10.80;;;;;;;;;;5007764;28;20186;-77
2022/01/11 07:45:40;;;;;;;18.33;11.20;;;;;;;;;;4990191;28;20245;-76
2022/01/11 07:48:06;;;;;;;20.75;11.50;;;;;;;;;;4990298;28;20660;-76
2022/01/11 07:50:32;;;;;;;20.65;11.23;;;;;;;;;;4990868;28;20213;-77
2022/01/11 07:52:59;;;;;;;17.35;10.15;;;;;;;;;;5000181;28;20251;-76
2022/01/11 07:55:25;;;;;;;20.60;10.77;;;;;;;;;;4990998;28;20190;-76
2022/01/11 07:57:51;;;;;;;18.95;10.93;;;;;;;;;;4986200;28;20243;-76
2022/01/11 08:00:17;;;;;;;15.57;9.07;;;;;;;;;;5005483;28;20218;-76
2022/01/11 08:02:43;;;;;;;20.88;11.73;;;;;;;;;;4998872;28;20273;-77
2022/01/11 08:05:10;;;;;;;19.15;10.55;;;;;;;;;;4988242;28;20175;-77
2022/01/11 08:07:35;;;;;;;18.38;12.15;;;;;;;;;;4988366;28;20242;-76
2022/01/11 08:10:02;;;;;;;19.10;12.13;;;;;;;;;;5006413;28;20261;-77
2022/01/11 08:12:28;;;;;;;16.38;10.45;;;;;;;;;;4990055;28;20253;-76
2022/01/11 08:14:54;;;;;;;17.42;11.48;;;;;;;;;;4998206;28;20192;-76
2022/01/11 08:17:20;;;;;;;18.90;11.45;;;;;;;;;;4976233;28;20186;-77
2022/01/11 08:19:46;;;;;;;24.80;13.18;;;;;;;;;;4984370;28;20525;-78
2022/01/11 08:22:12;;;;;;;15.48;11.25;;;;;;;;;;4982729;28;20602;-79
2022/01/11 08:24:38;;;;;;;18.20;11.23;;;;;;;;;;4986275;28;20462;-80
2022/01/11 08:27:05;;;;;;;17.48;11.05;;;;;;;;;;4978218;28;20179;-80
2022/01/11 08:29:31;;;;;;;22.60;13.50;;;;;;;;;;4995466;28;20207;-80
2022/01/11 08:31:57;;;;;;;18.85;11.82;;;;;;;;;;4997976;28;20187;-79
2022/01/11 08:34:23;;;;;;;17.77;11.23;;;;;;;;;;4978427;28;20171;-80
2022/01/11 08:36:50;;;;;;;17.92;12.00;;;;;;;;;;4976697;28;20184;-80
2022/01/11 08:39:17;;;;;;;19.88;11.45;;;;;;;;;;4995564;28;20214;-80
2022/01/11 08:41:43;;;;;;;21.30;13.00;;;;;;;;;;5020670;28;20210;-80
2022/01/11 08:44:12;;;;;;;14.73;11.02;;;;;;;;;;5006766;28;20193;-80
2022/01/11 08:46:40;;;;;;;19.23;12.45;;;;;;;;;;5015768;28;20236;-80
2022/01/11 08:49:06;;;;;;;23.00;12.88;;;;;;;;;;5020067;28;20242;-82
2022/01/11 08:51:32;;;;;;;22.77;12.60;;;;;;;;;;5016915;28;20208;-81
2022/01/11 08:53:58;;;;;;;19.35;13.27;;;;;;;;;;5013766;28;20660;-80
2022/01/11 08:56:25;;;;;;;20.45;12.38;;;;;;;;;;5017385;28;20189;-81
2022/01/11 08:58:51;;;;;;;23.55;13.60;;;;;;;;;;5005220;28;20221;-82
2022/01/11 09:01:17;;;;;;;24.27;14.02;;;;;;;;;;5020868;28;20588;-81
2022/01/11 09:03:43;;;;;;;19.58;12.88;;;;;;;;;;5008121;28;20202;-81
2022/01/11 09:06:09;;;;;;;23.88;13.32;;;;;;;;;;5004060;28;20700;-80
2022/01/11 09:08:36;;;;;;;27.67;14.00;;;;;;;;;;5011268;28;20186;-81
2022/01/11 09:11:04;;;;;;;27.98;14.32;;;;;;;;;;5009178;28;20187;-81
2022/01/11 09:13:30;;;;;;;20.30;13.15;;;;;;;;;;5005748;28;20480;-81
2022/01/11 09:15:57;;;;;;;22.52;13.40;;;;;;;;;;5014145;28;20668;-80
2022/01/11 09:18:23;;;;;;;23.98;15.45;;;;;;;;;;5020260;28;20182;-80
2022/01/11 09:20:49;;;;;;;26.10;13.95;;;;;;;;;;5014770;28;20308;-80
2022/01/11 09:23:15;;;;;;;30.17;16.55;;;;;;;;;;5013909;28;20211;-80
2022/01/11 09:25:41;;;;;;;25.08;17.33;;;;;;;;;;5015398;28;20194;-80
2022/01/11 09:28:07;;;;;;;27.52;15.13;;;;;;;;;;5011509;28;20217;-80
2022/01/11 09:30:33;;;;;;;23.73;14.68;;;;;;;;;;5018361;28;20186;-80
2022/01/11 09:32:59;;;;;;;28.08;15.45;;;;;;;;;;5015362;28;20186;-80
2022/01/11 09:35:25;;;;;;;25.40;14.82;;;;;;;;;;5012192;28;20225;-79
2022/01/11 09:37:51;;;;;;;25.67;14.82;;;;;;;;;;5021570;28;20244;-80
2022/01/11 09:40:18;;;;;;;23.38;15.02;;;;;;;;;;5020167;28;20268;-81
2022/01/11 09:42:44;;;;;;;27.25;15.52;;;;;;;;;;5010517;28;20316;-80
2022/01/11 09:45:11;;;;;;;31.15;17.00;;;;;;;;;;5015293;28;20243;-80
2022/01/11 09:47:41;;;;;;;27.25;15.52;;;;;;;;;;5007218;28;20187;-80
2022/01/11 09:50:08;;;;;;;37.08;14.90;;;;;;;;;;5020041;28;20187;-79
2022/01/11 09:52:36;;;;;;;23.70;13.02;;;;;;;;;;5004598;28;20190;-81
2022/01/11 09:55:02;;;;;;;21.75;14.52;;;;;;;;;;5011559;28;20171;-80
2022/01/11 09:57:28;;;;;;;24.55;12.90;;;;;;;;;;5009446;28;20183;-81
2022/01/11 09:59:54;;;;;;;27.00;15.07;;;;;;;;;;5014232;28;20239;-80
2022/01/11 10:02:20;;;;;;;29.13;15.50;;;;;;;;;;5010705;28;20246;-80
2022/01/11 10:04:47;;;;;;;26.15;15.10;;;;;;;;;;5006042;28;20202;-80
2022/01/11 10:07:13;;;;;;;25.75;14.45;;;;;;;;;;5020558;28;20176;-80
2022/01/11 10:09:44;;;;;;;20.85;14.07;;;;;;;;;;5014387;28;20187;-80
2022/01/11 10:12:12;;;;;;;21.77;14.65;;;;;;;;;;5008934;28;20183;-80
2022/01/11 10:14:39;;;;;;;26.83;13.88;;;;;;;;;;5021248;28;20247;-80
2022/01/11 10:17:11;;;;;;;22.85;14.43;;;;;;;;;;5021599;28;20190;-80
2022/01/11 10:19:39;;;;;;;20.33;12.38;;;;;;;;;;5020749;28;20197;-80
2022/01/11 10:22:06;;;;;;;27.38;14.48;;;;;;;;;;5010882;28;20179;-80
2022/01/11 10:24:35;;;;;;;21.40;12.73;;;;;;;;;;5009127;28;20602;-80
2022/01/11 10:27:21;;;;;;;23.95;14.00;;;;;;;;;;5023244;28;20237;-81
2022/01/11 10:29:54;;;;;;;25.02;14.63;;;;;;;;;;5015500;28;20218;-81
2022/01/11 10:32:40;;;;;;;19.35;13.40;;;;;;;;;;5008368;28;20257;-82
2022/01/11 10:35:07;;;;;;;24.10;14.15;;;;;;;;;;5022126;28;20286;-80
2022/01/11 10:37:35;;;;;;;23.95;14.07;;;;;;;;;;5006890;28;20640;-81
2022/01/11 10:40:09;;;;;;;26.13;16.50;;;;;;;;;;5010592;28;20291;-80
2022/01/11 10:42:38;;;;;;;27.55;16.25;;;;;;;;;;5009494;28;20186;-80
2022/01/11 10:45:09;;;;;;;35.28;15.18;;;;;;;;;;5009816;28;20175;-82
2022/01/11 10:47:37;;;;;;;27.05;16.55;;;;;;;;;;5009639;28;20568;-80
2022/01/11 10:50:13;;;;;;;21.85;14.68;;;;;;;;;;5005083;28;20215;-80
2022/01/11 10:52:40;;;;;;;25.13;13.40;;;;;;;;;;5006344;28;20249;-80
2022/01/11 10:55:07;;;;;;;22.20;13.63;;;;;;;;;;5010365;28;20259;-80
2022/01/11 10:57:37;;;;;;;24.23;15.05;;;;;;;;;;5008691;28;20233;-82
2022/01/11 11:00:11;;;;;;;21.00;13.85;;;;;;;;;;5010459;28;20253;-81
2022/01/11 11:02:38;;;;;;;23.40;14.80;;;;;;;;;;5006281;28;20183;-80
2022/01/11 11:05:21;;;;;;;20.75;15.35;;;;;;;;;;5006753;28;20182;-80
2022/01/11 11:07:58;;;;;;;23.67;14.40;;;;;;;;;;5013570;28;20191;-79
2022/01/11 11:10:34;;;;;;;30.13;14.18;;;;;;;;;;5015839;28;20207;-80
2022/01/11 11:13:01;;;;;;;22.15;15.55;;;;;;;;;;5020299;28;20602;-80
2022/01/11 11:15:37;;;;;;;24.90;16.42;;;;;;;;;;5007735;28;20218;-81
2022/01/11 11:18:04;;;;;;;25.05;15.48;;;;;;;;;;5006623;28;20274;-81
2022/01/11 11:20:31;;;;;;;24.55;15.05;;;;;;;;;;5020309;28;20209;-82
2022/01/11 11:22:58;;;;;;;26.35;16.17;;;;;;;;;;5019227;28;20222;-80
2022/01/11 11:25:24;;;;;;;25.58;14.73;;;;;;;;;;5018536;28;20206;-81
2022/01/11 11:27:50;;;;;;;27.13;16.75;;;;;;;;;;5010336;28;20230;-80
2022/01/11 11:30:17;;;;;;;23.55;14.25;;;;;;;;;;5013869;28;20194;-80
2022/01/11 11:32:46;;;;;;;26.17;16.15;;;;;;;;;;5009275;28;20225;-80
2022/01/11 11:35:12;;;;;;;21.38;15.13;;;;;;;;;;5005078;28;20205;-79
2022/01/11 11:37:40;;;;;;;20.77;14.60;;;;;;;;;;5020900;28;20186;-80
2022/01/11 11:40:06;;;;;;;23.25;15.02;;;;;;;;;;5018282;28;20513;-80
2022/01/11 11:42:32;;;;;;;28.00;16.25;;;;;;;;;;5011065;28;20255;-80
2022/01/11 11:44:59;;;;;;;23.15;14.88;;;;;;;;;;5008833;28;20179;-80
2022/01/11 11:47:30;;;;;;;25.48;16.77;;;;;;;;;;5003464;28;20181;-82
2022/01/11 11:49:56;;;;;;;24.48;15.95;;;;;;;;;;5003886;28;20186;-81
2022/01/11 11:52:35;;;;;;;25.13;16.55;;;;;;;;;;5015039;28;20195;-81
2022/01/11 11:55:08;;;;;;;24.33;15.70;;;;;;;;;;5019193;28;20186;-81
2022/01/11 11:57:35;;;;;;;22.98;15.30;;;;;;;;;;5009623;28;20180;-82
2022/01/11 12:00:31;;;;;;;21.58;15.52;;;;;;;;;;5007131;28;20217;-81
2022/01/11 12:03:00;;;;;;;23.10;15.65;;;;;;;;;;4992730;28;20199;-81
2022/01/11 12:05:37;;;;;;;22.30;15.70;;;;;;;;;;5008430;28;20248;-81
2022/01/11 12:08:22;;;;;;;28.83;16.40;;;;;;;;;;5014817;28;20189;-80
2022/01/11 12:10:49;;;;;;;24.50;16.10;;;;;;;;;;5004187;28;20209;-80
2022/01/11 12:13:34;;;;;;;28.50;15.90;;;;;;;;;;5020618;28;20206;-79
2022/01/11 12:16:00;;;;;;;21.25;14.63;;;;;;;;;;5013746;28;20667;-80
2022/01/11 12:18:41;;;;;;;24.83;14.05;;;;;;;;;;5010480;28;20667;-79
2022/01/11 12:21:07;;;;;;;24.25;14.70;;;;;;;;;;5007971;28;20262;-79
2022/01/11 12:23:36;;;;;;;21.17;13.95;;;;;;;;;;5020282;28;20199;-80
2022/01/11 12:26:28;;;;;;;24.25;14.73;;;;;;;;;;5017611;28;20190;-80
2022/01/11 12:29:04;;;;;;;22.02;13.57;;;;;;;;;;5002498;28;20194;-80
2022/01/11 12:31:33;;;;;;;22.02;14.90;;;;;;;;;;5015861;28;20182;-81
2022/01/11 12:33:59;;;;;;;24.10;14.20;;;;;;;;;;5007875;28;20258;-80
2022/01/11 12:36:44;;;;;;;24.35;16.15;;;;;;;;;;5011122;28;20183;-80
2022/01/11 12:39:10;;;;;;;23.10;14.85;;;;;;;;;;5012139;28;20715;-80
2022/01/11 12:41:37;;;;;;;22.17;14.80;;;;;;;;;;5017971;28;20306;-79
2022/01/11 12:44:21;;;;;;;23.50;15.68;;;;;;;;;;5019130;28;20178;-80
2022/01/11 12:46:59;;;;;;;26.02;15.98;;;;;;;;;;5018275;28;20694;-80
2022/01/11 12:49:25;;;;;;;29.00;15.95;;;;;;;;;;5017988;28;20463;-80
2022/01/11 12:51:53;;;;;;;28.85;17.08;;;;;;;;;;5016321;28;20214;-80
2022/01/11 12:54:25;;;;;;;26.25;15.20;;;;;;;;;;5017753;28;20199;-81
2022/01/11 12:56:55;;;;;;;25.15;15.85;;;;;;;;;;5015198;28;20194;-81
2022/01/11 12:59:22;;;;;;;23.95;15.75;;;;;;;;;;5012248;28;20636;-80
2022/01/11 13:01:56;;;;;;;21.70;16.45;;;;;;;;;;5004090;28;20225;-80
2022/01/11 13:04:38;;;;;;;29.98;17.13;;;;;;;;;;5016873;28;20182;-80
2022/01/11 13:07:11;;;;;;;25.60;16.38;;;;;;;;;;5016311;28;20170;-79
2022/01/11 13:09:37;;;;;;;26.48;15.70;;;;;;;;;;5019780;28;20189;-79
2022/01/11 13:12:03;;;;;;;24.00;15.60;;;;;;;;;;5021162;28;20777;-79
2022/01/11 13:14:39;;;;;;;25.52;15.40;;;;;;;;;;5021493;28;20175;-80
2022/01/11 13:17:05;;;;;;;24.50;15.20;;;;;;;;;;5017332;28;20174;-80
2022/01/11 13:19:32;;;;;;;27.40;15.52;;;;;;;;;;5020965;28;20175;-80
2022/01/11 13:22:05;;;;;;;31.80;18.67;;;;;;;;;;5020802;28;20232;-81
2022/01/11 13:24:36;;;;;;;27.92;15.85;;;;;;;;;;5012788;28;20573;-80
2022/01/11 13:27:08;;;;;;;23.67;15.88;;;;;;;;;;5011712;28;20208;-80
2022/01/11 13:29:35;;;;;;;25.08;17.23;;;;;;;;;;5018470;28;20202;-80
2022/01/11 13:32:01;;;;;;;25.73;15.82;;;;;;;;;;5020767;28;20212;-80
2022/01/11 13:34:27;;;;;;;23.58;17.27;;;;;;;;;;5021945;28;20189;-80
2022/01/11 13:36:54;;;;;;;34.50;18.00;;;;;;;;;;5020233;28;20186;-80
2022/01/11 13:39:27;;;;;;;25.23;16.20;;;;;;;;;;5016386;28;20613;-80
2022/01/11 13:41:54;;;;;;;23.70;14.65;;;;;;;;;;5019800;28;20207;-80
2022/01/11 13:44:22;;;;;;;22.92;15.10;;;;;;;;;;5011198;28;20675;-80
2022/01/11 13:46:49;;;;;;;21.65;16.17;;;;;;;;;;5023316;28;20250;-80
2022/01/11 13:49:15;;;;;;;28.45;17.40;;;;;;;;;;5023531;28;20179;-81
2022/01/11 13:51:43;;;;;;;29.65;16.40;;;;;;;;;;5012795;28;20211;-80
2022/01/11 13:54:09;;;;;;;22.63;15.75;;;;;;;;;;5010153;28;20183;-81
2022/01/11 13:56:39;;;;;;;26.60;18.30;;;;;;;;;;5020306;28;20190;-81
2022/01/11 13:59:05;;;;;;;38.60;22.95;;;;;;;;;;5020702;28;20179;-81
2022/01/11 14:01:32;;;;;;;30.90;18.95;;;;;;;;;;5018959;28;20269;-81
2022/01/11 14:04:11;;;;;;;21.05;14.55;;;;;;;;;;5019556;28;20181;-81
2022/01/11 14:06:45;;;;;;;27.80;16.85;;;;;;;;;;5011620;28;20183;-83
2022/01/11 14:09:22;;;;;;;25.52;15.88;;;;;;;;;;5012782;28;20250;-81
2022/01/11 14:12:04;;;;;;;22.67;15.13;;;;;;;;;;5018213;28;20182;-81
2022/01/11 14:14:30;;;;;;;25.38;15.65;;;;;;;;;;5006490;28;20187;-81
2022/01/11 14:16:56;;;;;;;29.83;15.88;;;;;;;;;;5018931;28;20187;-81
2022/01/11 14:19:23;;;;;;;22.05;15.50;;;;;;;;;;5019991;28;20242;-81
2022/01/11 14:21:51;;;;;;;21.15;15.90;;;;;;;;;;5009080;28;20245;-81
2022/01/11 14:24:17;;;;;;;30.35;17.98;;;;;;;;;;5010160;28;20202;-82